sensor_id;sensor_type;location;lat;lon;timestamp;P1;durP1;ratioP1;P2;durP2;ratioP2
61785;SDS011;47692;53.714;11.372;2024-02-26T00:00:23;3.55;;;2.78;;
61785;SDS011;47692;53.714;11.372;2024-02-26T00:02:49;4.10;;;2.60;;
61785;SDS011;47692;53.714;11.372;2024-02-26T00:05:14;4.25;;;2.80;;
61785;SDS011;47692;53.714;11.372;2024-02-26T00:07:39;4.93;;;3.28;;
61785;SDS011;47692;53.714;11.372;2024-02-26T00:10:05;3.95;;;2.78;;
61785;SDS011;47692;53.714;11.372;2024-02-26T00:12:31;4.35;;;3.13;;
61785;SDS011;47692;53.714;11.372;2024-02-26T00:14:56;4.32;;;3.03;;
61785;SDS011;47692;53.714;11.372;2024-02-26T00:17:23;3.60;;;2.83;;
61785;SDS011;47692;53.714;11.372;2024-02-26T00:19:49;5.53;;;2.78;;
61785;SDS011;47692;53.714;11.372;2024-02-26T00:22:14;5.50;;;2.67;;
61785;SDS011;47692;53.714;11.372;2024-02-26T00:24:40;5.80;;;3.00;;
61785;SDS011;47692;53.714;11.372;2024-02-26T00:27:06;4.68;;;3.15;;
61785;SDS011;47692;53.714;11.372;2024-02-26T00:29:31;6.07;;;3.15;;
61785;SDS011;47692;53.714;11.372;2024-02-26T00:31:57;4.47;;;2.95;;
61785;SDS011;47692;53.714;11.372;2024-02-26T00:34:23;4.00;;;3.17;;
61785;SDS011;47692;53.714;11.372;2024-02-26T00:36:49;4.47;;;3.55;;
61785;SDS011;47692;53.714;11.372;2024-02-26T00:39:14;4.13;;;2.80;;
61785;SDS011;47692;53.714;11.372;2024-02-26T00:41:40;4.60;;;3.20;;
61785;SDS011;47692;53.714;11.372;2024-02-26T00:44:05;5.50;;;3.13;;
61785;SDS011;47692;53.714;11.372;2024-02-26T00:46:31;4.78;;;2.65;;
61785;SDS011;47692;53.714;11.372;2024-02-26T00:48:56;3.67;;;2.83;;
61785;SDS011;47692;53.714;11.372;2024-02-26T00:51:22;4.85;;;2.92;;
61785;SDS011;47692;53.714;11.372;2024-02-26T00:53:47;3.42;;;2.80;;
61785;SDS011;47692;53.714;11.372;2024-02-26T00:56:12;5.13;;;2.83;;
61785;SDS011;47692;53.714;11.372;2024-02-26T00:58:38;4.15;;;2.83;;
61785;SDS011;47692;53.714;11.372;2024-02-26T01:01:04;4.13;;;3.10;;
61785;SDS011;47692;53.714;11.372;2024-02-26T01:03:29;6.05;;;3.80;;
61785;SDS011;47692;53.714;11.372;2024-02-26T01:05:54;4.30;;;3.25;;
61785;SDS011;47692;53.714;11.372;2024-02-26T01:08:20;5.05;;;3.42;;
61785;SDS011;47692;53.714;11.372;2024-02-26T01:10:45;5.28;;;3.70;;
61785;SDS011;47692;53.714;11.372;2024-02-26T01:13:11;4.80;;;3.10;;
61785;SDS011;47692;53.714;11.372;2024-02-26T01:15:36;3.83;;;2.88;;
61785;SDS011;47692;53.714;11.372;2024-02-26T01:18:01;4.05;;;3.00;;
61785;SDS011;47692;53.714;11.372;2024-02-26T01:20:27;4.53;;;3.40;;
61785;SDS011;47692;53.714;11.372;2024-02-26T01:22:52;3.85;;;2.90;;
61785;SDS011;47692;53.714;11.372;2024-02-26T01:25:17;5.80;;;3.22;;
61785;SDS011;47692;53.714;11.372;2024-02-26T01:27:43;4.93;;;3.50;;
61785;SDS011;47692;53.714;11.372;2024-02-26T01:30:09;6.00;;;3.33;;
61785;SDS011;47692;53.714;11.372;2024-02-26T01:32:35;4.30;;;3.10;;
61785;SDS011;47692;53.714;11.372;2024-02-26T01:35:01;4.75;;;3.00;;
61785;SDS011;47692;53.714;11.372;2024-02-26T01:37:28;5.15;;;3.20;;
61785;SDS011;47692;53.714;11.372;2024-02-26T01:39:54;4.50;;;3.47;;
61785;SDS011;47692;53.714;11.372;2024-02-26T01:42:20;4.43;;;3.20;;
61785;SDS011;47692;53.714;11.372;2024-02-26T01:44:45;4.55;;;3.53;;
61785;SDS011;47692;53.714;11.372;2024-02-26T01:47:11;4.45;;;3.40;;
61785;SDS011;47692;53.714;11.372;2024-02-26T01:49:37;6.43;;;3.05;;
61785;SDS011;47692;53.714;11.372;2024-02-26T01:52:04;4.13;;;3.00;;
61785;SDS011;47692;53.714;11.372;2024-02-26T01:54:31;4.25;;;2.95;;
61785;SDS011;47692;53.714;11.372;2024-02-26T01:56:59;5.30;;;2.88;;
61785;SDS011;47692;53.714;11.372;2024-02-26T01:59:25;3.55;;;2.90;;
61785;SDS011;47692;53.714;11.372;2024-02-26T02:01:52;3.33;;;2.53;;
61785;SDS011;47692;53.714;11.372;2024-02-26T02:04:22;5.05;;;3.35;;
61785;SDS011;47692;53.714;11.372;2024-02-26T02:06:48;5.63;;;2.90;;
61785;SDS011;47692;53.714;11.372;2024-02-26T02:09:14;4.95;;;3.28;;
61785;SDS011;47692;53.714;11.372;2024-02-26T02:11:39;3.50;;;2.60;;
61785;SDS011;47692;53.714;11.372;2024-02-26T02:14:05;4.35;;;2.80;;
61785;SDS011;47692;53.714;11.372;2024-02-26T02:16:31;5.03;;;3.08;;
61785;SDS011;47692;53.714;11.372;2024-02-26T02:18:57;4.65;;;2.90;;
61785;SDS011;47692;53.714;11.372;2024-02-26T02:21:23;3.92;;;2.88;;
61785;SDS011;47692;53.714;11.372;2024-02-26T02:23:48;4.07;;;3.17;;
61785;SDS011;47692;53.714;11.372;2024-02-26T02:26:14;5.05;;;3.17;;
61785;SDS011;47692;53.714;11.372;2024-02-26T02:28:40;5.13;;;2.97;;
61785;SDS011;47692;53.714;11.372;2024-02-26T02:31:06;4.47;;;3.28;;
61785;SDS011;47692;53.714;11.372;2024-02-26T02:33:31;4.00;;;2.88;;
61785;SDS011;47692;53.714;11.372;2024-02-26T02:35:58;4.82;;;3.10;;
61785;SDS011;47692;53.714;11.372;2024-02-26T02:38:24;5.13;;;2.90;;
61785;SDS011;47692;53.714;11.372;2024-02-26T02:40:54;3.85;;;2.63;;
61785;SDS011;47692;53.714;11.372;2024-02-26T02:43:19;3.58;;;2.83;;
61785;SDS011;47692;53.714;11.372;2024-02-26T02:45:44;4.03;;;2.63;;
61785;SDS011;47692;53.714;11.372;2024-02-26T02:48:13;3.95;;;2.33;;
61785;SDS011;47692;53.714;11.372;2024-02-26T02:50:38;3.00;;;2.50;;
61785;SDS011;47692;53.714;11.372;2024-02-26T02:53:04;5.30;;;2.90;;
61785;SDS011;47692;53.714;11.372;2024-02-26T02:55:29;4.63;;;3.00;;
61785;SDS011;47692;53.714;11.372;2024-02-26T02:57:55;5.50;;;3.53;;
61785;SDS011;47692;53.714;11.372;2024-02-26T03:00:20;4.55;;;3.22;;
61785;SDS011;47692;53.714;11.372;2024-02-26T03:02:47;4.05;;;3.33;;
61785;SDS011;47692;53.714;11.372;2024-02-26T03:05:13;5.75;;;2.95;;
61785;SDS011;47692;53.714;11.372;2024-02-26T03:07:39;4.53;;;2.88;;
61785;SDS011;47692;53.714;11.372;2024-02-26T03:10:04;4.82;;;3.22;;
61785;SDS011;47692;53.714;11.372;2024-02-26T03:12:30;5.57;;;3.20;;
61785;SDS011;47692;53.714;11.372;2024-02-26T03:14:56;4.28;;;2.90;;
61785;SDS011;47692;53.714;11.372;2024-02-26T03:17:21;3.95;;;2.80;;
61785;SDS011;47692;53.714;11.372;2024-02-26T03:19:49;4.97;;;2.95;;
61785;SDS011;47692;53.714;11.372;2024-02-26T03:22:18;3.17;;;2.50;;
61785;SDS011;47692;53.714;11.372;2024-02-26T03:24:43;3.75;;;2.67;;
61785;SDS011;47692;53.714;11.372;2024-02-26T03:27:08;4.57;;;2.80;;
61785;SDS011;47692;53.714;11.372;2024-02-26T03:29:37;7.43;;;2.80;;
61785;SDS011;47692;53.714;11.372;2024-02-26T03:32:03;4.10;;;2.67;;
61785;SDS011;47692;53.714;11.372;2024-02-26T03:34:29;4.38;;;2.63;;
61785;SDS011;47692;53.714;11.372;2024-02-26T03:36:55;3.75;;;2.90;;
61785;SDS011;47692;53.714;11.372;2024-02-26T03:39:21;4.80;;;3.22;;
61785;SDS011;47692;53.714;11.372;2024-02-26T03:41:47;5.20;;;2.80;;
61785;SDS011;47692;53.714;11.372;2024-02-26T03:44:12;3.45;;;2.75;;
61785;SDS011;47692;53.714;11.372;2024-02-26T03:46:38;3.90;;;2.67;;
61785;SDS011;47692;53.714;11.372;2024-02-26T03:49:03;3.65;;;2.63;;
61785;SDS011;47692;53.714;11.372;2024-02-26T03:51:28;5.28;;;3.00;;
61785;SDS011;47692;53.714;11.372;2024-02-26T03:53:56;5.82;;;2.92;;
61785;SDS011;47692;53.714;11.372;2024-02-26T03:56:23;4.75;;;3.00;;
61785;SDS011;47692;53.714;11.372;2024-02-26T03:58:48;4.53;;;3.08;;
61785;SDS011;47692;53.714;11.372;2024-02-26T04:01:13;4.00;;;2.90;;
61785;SDS011;47692;53.714;11.372;2024-02-26T04:03:38;4.10;;;2.97;;
61785;SDS011;47692;53.714;11.372;2024-02-26T04:06:04;4.30;;;3.00;;
61785;SDS011;47692;53.714;11.372;2024-02-26T04:08:29;5.35;;;3.05;;
61785;SDS011;47692;53.714;11.372;2024-02-26T04:10:55;4.70;;;2.50;;
61785;SDS011;47692;53.714;11.372;2024-02-26T04:13:20;4.25;;;2.90;;
61785;SDS011;47692;53.714;11.372;2024-02-26T04:15:45;6.75;;;3.33;;
61785;SDS011;47692;53.714;11.372;2024-02-26T04:18:12;4.55;;;3.10;;
61785;SDS011;47692;53.714;11.372;2024-02-26T04:20:37;6.78;;;3.45;;
61785;SDS011;47692;53.714;11.372;2024-02-26T04:23:03;4.93;;;3.25;;
61785;SDS011;47692;53.714;11.372;2024-02-26T04:25:29;5.97;;;3.83;;
61785;SDS011;47692;53.714;11.372;2024-02-26T04:27:54;7.45;;;3.80;;
61785;SDS011;47692;53.714;11.372;2024-02-26T04:30:19;5.13;;;3.30;;
61785;SDS011;47692;53.714;11.372;2024-02-26T04:32:45;5.13;;;3.35;;
61785;SDS011;47692;53.714;11.372;2024-02-26T04:35:10;5.43;;;3.17;;
61785;SDS011;47692;53.714;11.372;2024-02-26T04:37:36;5.65;;;3.70;;
61785;SDS011;47692;53.714;11.372;2024-02-26T04:40:01;9.70;;;4.72;;
61785;SDS011;47692;53.714;11.372;2024-02-26T04:42:27;7.07;;;3.97;;
61785;SDS011;47692;53.714;11.372;2024-02-26T04:44:54;6.93;;;4.18;;
61785;SDS011;47692;53.714;11.372;2024-02-26T04:47:20;7.35;;;3.90;;
61785;SDS011;47692;53.714;11.372;2024-02-26T04:49:47;5.85;;;4.03;;
61785;SDS011;47692;53.714;11.372;2024-02-26T04:52:12;6.13;;;3.55;;
61785;SDS011;47692;53.714;11.372;2024-02-26T04:54:38;4.65;;;3.40;;
61785;SDS011;47692;53.714;11.372;2024-02-26T04:57:03;4.80;;;3.33;;
61785;SDS011;47692;53.714;11.372;2024-02-26T04:59:29;6.32;;;4.20;;
61785;SDS011;47692;53.714;11.372;2024-02-26T05:01:55;5.53;;;3.97;;
61785;SDS011;47692;53.714;11.372;2024-02-26T05:04:20;4.68;;;3.38;;
61785;SDS011;47692;53.714;11.372;2024-02-26T05:06:45;8.18;;;3.72;;
61785;SDS011;47692;53.714;11.372;2024-02-26T05:09:11;6.30;;;4.00;;
61785;SDS011;47692;53.714;11.372;2024-02-26T05:11:37;7.35;;;3.47;;
61785;SDS011;47692;53.714;11.372;2024-02-26T05:14:02;5.75;;;3.97;;
61785;SDS011;47692;53.714;11.372;2024-02-26T05:16:28;4.72;;;3.30;;
61785;SDS011;47692;53.714;11.372;2024-02-26T05:18:55;4.93;;;3.38;;
61785;SDS011;47692;53.714;11.372;2024-02-26T05:21:20;4.72;;;3.10;;
61785;SDS011;47692;53.714;11.372;2024-02-26T05:23:45;7.03;;;3.53;;
61785;SDS011;47692;53.714;11.372;2024-02-26T05:26:11;6.60;;;3.20;;
61785;SDS011;47692;53.714;11.372;2024-02-26T05:28:36;6.75;;;3.80;;
61785;SDS011;47692;53.714;11.372;2024-02-26T05:31:04;5.25;;;3.55;;
61785;SDS011;47692;53.714;11.372;2024-02-26T05:33:30;5.78;;;3.60;;
61785;SDS011;47692;53.714;11.372;2024-02-26T05:35:55;3.83;;;2.78;;
61785;SDS011;47692;53.714;11.372;2024-02-26T05:38:20;5.80;;;3.00;;
61785;SDS011;47692;53.714;11.372;2024-02-26T05:40:46;5.65;;;3.40;;
61785;SDS011;47692;53.714;11.372;2024-02-26T05:43:11;5.22;;;3.10;;
61785;SDS011;47692;53.714;11.372;2024-02-26T05:45:36;5.25;;;2.70;;
61785;SDS011;47692;53.714;11.372;2024-02-26T05:48:02;4.50;;;3.55;;
61785;SDS011;47692;53.714;11.372;2024-02-26T05:50:28;9.20;;;8.40;;
61785;SDS011;47692;53.714;11.372;2024-02-26T05:52:53;5.45;;;4.25;;
61785;SDS011;47692;53.714;11.372;2024-02-26T05:55:18;5.40;;;3.95;;
61785;SDS011;47692;53.714;11.372;2024-02-26T05:57:44;6.18;;;4.07;;
61785;SDS011;47692;53.714;11.372;2024-02-26T06:00:09;5.68;;;3.47;;
61785;SDS011;47692;53.714;11.372;2024-02-26T06:02:35;5.05;;;3.05;;
61785;SDS011;47692;53.714;11.372;2024-02-26T06:05:01;4.13;;;3.00;;
61785;SDS011;47692;53.714;11.372;2024-02-26T06:07:26;4.68;;;3.35;;
61785;SDS011;47692;53.714;11.372;2024-02-26T06:09:51;5.45;;;3.50;;
61785;SDS011;47692;53.714;11.372;2024-02-26T06:12:17;3.38;;;2.60;;
61785;SDS011;47692;53.714;11.372;2024-02-26T06:14:42;6.32;;;3.85;;
61785;SDS011;47692;53.714;11.372;2024-02-26T06:17:08;5.30;;;3.38;;
61785;SDS011;47692;53.714;11.372;2024-02-26T06:19:33;4.30;;;2.97;;
61785;SDS011;47692;53.714;11.372;2024-02-26T06:21:59;4.45;;;3.08;;
61785;SDS011;47692;53.714;11.372;2024-02-26T06:24:25;4.30;;;3.13;;
61785;SDS011;47692;53.714;11.372;2024-02-26T06:26:51;5.35;;;3.28;;
61785;SDS011;47692;53.714;11.372;2024-02-26T06:29:17;4.03;;;3.15;;
61785;SDS011;47692;53.714;11.372;2024-02-26T06:31:43;6.47;;;3.47;;
61785;SDS011;47692;53.714;11.372;2024-02-26T06:34:10;5.22;;;3.45;;
61785;SDS011;47692;53.714;11.372;2024-02-26T06:36:36;5.80;;;3.17;;
61785;SDS011;47692;53.714;11.372;2024-02-26T06:39:01;4.63;;;3.63;;
61785;SDS011;47692;53.714;11.372;2024-02-26T06:41:27;4.63;;;3.17;;
61785;SDS011;47692;53.714;11.372;2024-02-26T06:43:54;5.00;;;3.50;;
61785;SDS011;47692;53.714;11.372;2024-02-26T06:46:20;4.32;;;2.97;;
61785;SDS011;47692;53.714;11.372;2024-02-26T06:48:47;4.88;;;3.40;;
61785;SDS011;47692;53.714;11.372;2024-02-26T06:51:13;5.00;;;3.40;;
61785;SDS011;47692;53.714;11.372;2024-02-26T06:53:38;5.00;;;3.30;;
61785;SDS011;47692;53.714;11.372;2024-02-26T06:56:03;4.78;;;3.33;;
61785;SDS011;47692;53.714;11.372;2024-02-26T06:58:29;6.53;;;3.63;;
61785;SDS011;47692;53.714;11.372;2024-02-26T07:00:54;3.78;;;2.85;;
61785;SDS011;47692;53.714;11.372;2024-02-26T07:03:20;4.50;;;3.08;;
61785;SDS011;47692;53.714;11.372;2024-02-26T07:05:45;5.32;;;3.33;;
61785;SDS011;47692;53.714;11.372;2024-02-26T07:08:11;4.28;;;2.97;;
61785;SDS011;47692;53.714;11.372;2024-02-26T07:10:36;4.60;;;2.78;;
61785;SDS011;47692;53.714;11.372;2024-02-26T07:13:01;7.00;;;3.30;;
61785;SDS011;47692;53.714;11.372;2024-02-26T07:15:27;4.78;;;2.88;;
61785;SDS011;47692;53.714;11.372;2024-02-26T07:17:52;4.97;;;2.92;;
61785;SDS011;47692;53.714;11.372;2024-02-26T07:20:17;4.15;;;3.03;;
61785;SDS011;47692;53.714;11.372;2024-02-26T07:22:43;5.05;;;3.00;;
61785;SDS011;47692;53.714;11.372;2024-02-26T07:25:09;4.82;;;3.30;;
61785;SDS011;47692;53.714;11.372;2024-02-26T07:27:38;6.07;;;3.53;;
61785;SDS011;47692;53.714;11.372;2024-02-26T07:30:03;5.50;;;3.10;;
61785;SDS011;47692;53.714;11.372;2024-02-26T07:32:29;4.68;;;3.25;;
61785;SDS011;47692;53.714;11.372;2024-02-26T07:34:54;4.50;;;3.35;;
61785;SDS011;47692;53.714;11.372;2024-02-26T07:37:20;5.18;;;3.35;;
61785;SDS011;47692;53.714;11.372;2024-02-26T07:39:45;3.95;;;3.03;;
61785;SDS011;47692;53.714;11.372;2024-02-26T07:42:10;4.68;;;3.30;;
61785;SDS011;47692;53.714;11.372;2024-02-26T07:44:36;4.88;;;3.05;;
61785;SDS011;47692;53.714;11.372;2024-02-26T07:47:01;5.40;;;2.80;;
61785;SDS011;47692;53.714;11.372;2024-02-26T07:49:27;4.90;;;3.10;;
61785;SDS011;47692;53.714;11.372;2024-02-26T07:51:53;6.80;;;3.13;;
61785;SDS011;47692;53.714;11.372;2024-02-26T07:54:18;3.60;;;2.92;;
61785;SDS011;47692;53.714;11.372;2024-02-26T07:56:44;3.70;;;2.70;;
61785;SDS011;47692;53.714;11.372;2024-02-26T07:59:09;4.63;;;3.20;;
61785;SDS011;47692;53.714;11.372;2024-02-26T08:01:34;4.13;;;2.80;;
61785;SDS011;47692;53.714;11.372;2024-02-26T08:04:00;4.60;;;3.45;;
61785;SDS011;47692;53.714;11.372;2024-02-26T08:06:25;5.15;;;3.20;;
61785;SDS011;47692;53.714;11.372;2024-02-26T08:08:50;7.50;;;3.47;;
61785;SDS011;47692;53.714;11.372;2024-02-26T08:11:16;4.55;;;3.00;;
61785;SDS011;47692;53.714;11.372;2024-02-26T08:13:41;4.40;;;3.17;;
61785;SDS011;47692;53.714;11.372;2024-02-26T08:16:07;6.22;;;3.50;;
61785;SDS011;47692;53.714;11.372;2024-02-26T08:18:32;4.55;;;3.30;;
61785;SDS011;47692;53.714;11.372;2024-02-26T08:20:57;6.03;;;4.03;;
61785;SDS011;47692;53.714;11.372;2024-02-26T08:23:23;6.75;;;3.70;;
61785;SDS011;47692;53.714;11.372;2024-02-26T08:25:50;4.57;;;3.85;;
61785;SDS011;47692;53.714;11.372;2024-02-26T08:28:15;5.35;;;3.85;;
61785;SDS011;47692;53.714;11.372;2024-02-26T08:30:42;5.22;;;3.67;;
61785;SDS011;47692;53.714;11.372;2024-02-26T08:33:08;5.28;;;3.90;;
61785;SDS011;47692;53.714;11.372;2024-02-26T08:35:33;4.95;;;3.53;;
61785;SDS011;47692;53.714;11.372;2024-02-26T08:37:59;5.22;;;4.68;;
61785;SDS011;47692;53.714;11.372;2024-02-26T08:40:24;6.07;;;4.20;;
61785;SDS011;47692;53.714;11.372;2024-02-26T08:42:49;6.22;;;4.68;;
61785;SDS011;47692;53.714;11.372;2024-02-26T08:45:15;6.65;;;4.15;;
61785;SDS011;47692;53.714;11.372;2024-02-26T08:47:40;7.35;;;4.55;;
61785;SDS011;47692;53.714;11.372;2024-02-26T08:50:05;6.80;;;4.68;;
61785;SDS011;47692;53.714;11.372;2024-02-26T08:52:31;7.03;;;4.45;;
61785;SDS011;47692;53.714;11.372;2024-02-26T08:54:58;5.70;;;4.20;;
61785;SDS011;47692;53.714;11.372;2024-02-26T08:57:23;5.63;;;4.03;;
61785;SDS011;47692;53.714;11.372;2024-02-26T08:59:48;7.05;;;4.60;;
61785;SDS011;47692;53.714;11.372;2024-02-26T09:02:14;6.30;;;4.50;;
61785;SDS011;47692;53.714;11.372;2024-02-26T09:04:39;6.03;;;4.03;;
61785;SDS011;47692;53.714;11.372;2024-02-26T09:07:05;6.45;;;4.07;;
61785;SDS011;47692;53.714;11.372;2024-02-26T09:09:31;5.85;;;4.10;;
61785;SDS011;47692;53.714;11.372;2024-02-26T09:11:56;6.20;;;3.97;;
61785;SDS011;47692;53.714;11.372;2024-02-26T09:14:22;5.05;;;3.45;;
61785;SDS011;47692;53.714;11.372;2024-02-26T09:16:47;6.05;;;3.72;;
61785;SDS011;47692;53.714;11.372;2024-02-26T09:19:13;4.13;;;3.20;;
61785;SDS011;47692;53.714;11.372;2024-02-26T09:21:43;4.75;;;3.42;;
61785;SDS011;47692;53.714;11.372;2024-02-26T09:24:09;5.80;;;3.40;;
61785;SDS011;47692;53.714;11.372;2024-02-26T09:26:34;5.25;;;3.47;;
61785;SDS011;47692;53.714;11.372;2024-02-26T09:29:00;5.68;;;3.53;;
61785;SDS011;47692;53.714;11.372;2024-02-26T09:31:25;5.68;;;4.13;;
61785;SDS011;47692;53.714;11.372;2024-02-26T09:33:50;5.22;;;3.53;;
61785;SDS011;47692;53.714;11.372;2024-02-26T09:36:16;6.93;;;4.15;;
61785;SDS011;47692;53.714;11.372;2024-02-26T09:38:41;6.25;;;3.95;;
61785;SDS011;47692;53.714;11.372;2024-02-26T09:41:06;6.30;;;3.97;;
61785;SDS011;47692;53.714;11.372;2024-02-26T09:43:38;4.82;;;3.30;;
61785;SDS011;47692;53.714;11.372;2024-02-26T09:46:08;5.75;;;3.33;;
61785;SDS011;47692;53.714;11.372;2024-02-26T09:48:34;6.28;;;3.25;;
61785;SDS011;47692;53.714;11.372;2024-02-26T09:51:01;5.13;;;3.13;;
61785;SDS011;47692;53.714;11.372;2024-02-26T09:53:27;4.78;;;3.08;;
61785;SDS011;47692;53.714;11.372;2024-02-26T09:55:56;5.90;;;3.30;;
61785;SDS011;47692;53.714;11.372;2024-02-26T09:58:22;3.97;;;3.03;;
61785;SDS011;47692;53.714;11.372;2024-02-26T10:00:50;5.43;;;3.33;;
61785;SDS011;47692;53.714;11.372;2024-02-26T10:03:18;5.05;;;3.20;;
61785;SDS011;47692;53.714;11.372;2024-02-26T10:05:47;5.47;;;4.07;;
61785;SDS011;47692;53.714;11.372;2024-02-26T10:08:14;7.90;;;3.58;;
61785;SDS011;47692;53.714;11.372;2024-02-26T10:10:40;5.57;;;3.67;;
61785;SDS011;47692;53.714;11.372;2024-02-26T10:13:06;7.65;;;4.22;;
61785;SDS011;47692;53.714;11.372;2024-02-26T10:15:35;4.63;;;3.40;;
61785;SDS011;47692;53.714;11.372;2024-02-26T10:18:04;5.35;;;3.60;;
61785;SDS011;47692;53.714;11.372;2024-02-26T10:20:30;5.55;;;3.58;;
61785;SDS011;47692;53.714;11.372;2024-02-26T10:22:56;5.47;;;3.88;;
61785;SDS011;47692;53.714;11.372;2024-02-26T10:25:22;6.07;;;4.25;;
61785;SDS011;47692;53.714;11.372;2024-02-26T10:27:47;5.45;;;3.97;;
61785;SDS011;47692;53.714;11.372;2024-02-26T10:32:42;5.50;;;4.15;;
61785;SDS011;47692;53.714;11.372;2024-02-26T10:35:08;5.38;;;4.35;;
61785;SDS011;47692;53.714;11.372;2024-02-26T10:37:34;6.60;;;4.40;;
61785;SDS011;47692;53.714;11.372;2024-02-26T10:39:59;6.32;;;4.32;;
61785;SDS011;47692;53.714;11.372;2024-02-26T10:42:25;8.55;;;4.53;;
61785;SDS011;47692;53.714;11.372;2024-02-26T10:44:51;6.55;;;4.45;;
61785;SDS011;47692;53.714;11.372;2024-02-26T10:47:16;7.60;;;4.75;;
61785;SDS011;47692;53.714;11.372;2024-02-26T10:49:44;7.68;;;4.70;;
61785;SDS011;47692;53.714;11.372;2024-02-26T10:52:11;6.70;;;4.78;;
61785;SDS011;47692;53.714;11.372;2024-02-26T10:54:37;6.57;;;4.50;;
61785;SDS011;47692;53.714;11.372;2024-02-26T10:57:06;5.40;;;4.00;;
61785;SDS011;47692;53.714;11.372;2024-02-26T10:59:33;4.43;;;3.72;;
61785;SDS011;47692;53.714;11.372;2024-02-26T11:02:00;6.18;;;4.43;;
61785;SDS011;47692;53.714;11.372;2024-02-26T11:04:26;5.20;;;3.92;;
61785;SDS011;47692;53.714;11.372;2024-02-26T11:06:53;7.30;;;5.05;;
61785;SDS011;47692;53.714;11.372;2024-02-26T11:09:20;6.03;;;4.03;;
61785;SDS011;47692;53.714;11.372;2024-02-26T11:11:47;7.90;;;4.43;;
61785;SDS011;47692;53.714;11.372;2024-02-26T11:14:13;6.50;;;4.28;;
61785;SDS011;47692;53.714;11.372;2024-02-26T11:16:39;6.43;;;4.82;;
61785;SDS011;47692;53.714;11.372;2024-02-26T11:19:06;6.18;;;4.32;;
61785;SDS011;47692;53.714;11.372;2024-02-26T11:21:33;6.07;;;4.35;;
61785;SDS011;47692;53.714;11.372;2024-02-26T11:24:15;6.78;;;3.97;;
61785;SDS011;47692;53.714;11.372;2024-02-26T11:26:48;6.90;;;4.47;;
61785;SDS011;47692;53.714;11.372;2024-02-26T11:29:25;8.70;;;4.57;;
61785;SDS011;47692;53.714;11.372;2024-02-26T11:31:54;7.03;;;4.30;;
61785;SDS011;47692;53.714;11.372;2024-02-26T11:34:19;5.32;;;4.07;;
61785;SDS011;47692;53.714;11.372;2024-02-26T11:36:45;6.15;;;3.95;;
61785;SDS011;47692;53.714;11.372;2024-02-26T11:39:11;4.95;;;4.28;;
61785;SDS011;47692;53.714;11.372;2024-02-26T11:41:38;7.90;;;5.50;;
61785;SDS011;47692;53.714;11.372;2024-02-26T11:44:03;7.32;;;5.30;;
61785;SDS011;47692;53.714;11.372;2024-02-26T11:46:32;7.88;;;5.22;;
61785;SDS011;47692;53.714;11.372;2024-02-26T11:51:52;6.13;;;4.72;;
61785;SDS011;47692;53.714;11.372;2024-02-26T11:57:22;7.70;;;5.32;;
61785;SDS011;47692;53.714;11.372;2024-02-26T12:02:40;8.95;;;7.20;;
61785;SDS011;47692;53.714;11.372;2024-02-26T12:05:11;11.98;;;8.65;;
61785;SDS011;47692;53.714;11.372;2024-02-26T12:07:42;14.05;;;8.32;;
61785;SDS011;47692;53.714;11.372;2024-02-26T12:15:23;12.98;;;8.98;;
61785;SDS011;47692;53.714;11.372;2024-02-26T12:17:48;13.15;;;9.18;;
61785;SDS011;47692;53.714;11.372;2024-02-26T12:20:15;11.68;;;8.55;;
61785;SDS011;47692;53.714;11.372;2024-02-26T12:22:42;15.45;;;9.20;;
61785;SDS011;47692;53.714;11.372;2024-02-26T12:27:39;15.45;;;9.05;;
61785;SDS011;47692;53.714;11.372;2024-02-26T12:30:05;12.63;;;9.45;;
61785;SDS011;47692;53.714;11.372;2024-02-26T12:32:31;10.23;;;8.38;;
61785;SDS011;47692;53.714;11.372;2024-02-26T12:34:57;12.00;;;8.55;;
61785;SDS011;47692;53.714;11.372;2024-02-26T12:37:25;12.95;;;8.25;;
61785;SDS011;47692;53.714;11.372;2024-02-26T12:39:52;11.10;;;7.97;;
61785;SDS011;47692;53.714;11.372;2024-02-26T12:42:17;10.13;;;7.88;;
61785;SDS011;47692;53.714;11.372;2024-02-26T12:44:46;9.70;;;6.90;;
61785;SDS011;47692;53.714;11.372;2024-02-26T12:47:12;9.55;;;7.05;;
61785;SDS011;47692;53.714;11.372;2024-02-26T12:49:42;9.93;;;7.00;;
61785;SDS011;47692;53.714;11.372;2024-02-26T12:52:09;11.27;;;7.10;;
61785;SDS011;47692;53.714;11.372;2024-02-26T12:54:35;10.27;;;7.18;;
61785;SDS011;47692;53.714;11.372;2024-02-26T12:57:04;11.27;;;7.15;;
61785;SDS011;47692;53.714;11.372;2024-02-26T12:59:31;10.20;;;7.10;;
61785;SDS011;47692;53.714;11.372;2024-02-26T13:01:59;11.75;;;7.22;;
61785;SDS011;47692;53.714;11.372;2024-02-26T13:04:25;9.80;;;6.95;;
61785;SDS011;47692;53.714;11.372;2024-02-26T13:06:52;9.60;;;6.20;;
61785;SDS011;47692;53.714;11.372;2024-02-26T13:09:18;11.30;;;7.18;;
61785;SDS011;47692;53.714;11.372;2024-02-26T13:11:44;10.82;;;6.85;;
61785;SDS011;47692;53.714;11.372;2024-02-26T13:14:19;9.43;;;6.63;;
61785;SDS011;47692;53.714;11.372;2024-02-26T13:16:45;9.25;;;5.93;;
61785;SDS011;47692;53.714;11.372;2024-02-26T13:19:19;10.63;;;6.75;;
61785;SDS011;47692;53.714;11.372;2024-02-26T13:21:44;10.18;;;7.05;;
61785;SDS011;47692;53.714;11.372;2024-02-26T13:24:12;8.80;;;6.07;;
61785;SDS011;47692;53.714;11.372;2024-02-26T13:26:38;9.80;;;6.68;;
61785;SDS011;47692;53.714;11.372;2024-02-26T13:29:03;8.90;;;6.57;;
61785;SDS011;47692;53.714;11.372;2024-02-26T13:31:29;8.68;;;6.85;;
61785;SDS011;47692;53.714;11.372;2024-02-26T13:33:54;10.20;;;7.55;;
61785;SDS011;47692;53.714;11.372;2024-02-26T13:36:21;12.43;;;8.18;;
61785;SDS011;47692;53.714;11.372;2024-02-26T13:38:53;12.15;;;8.25;;
61785;SDS011;47692;53.714;11.372;2024-02-26T13:41:20;15.48;;;9.10;;
61785;SDS011;47692;53.714;11.372;2024-02-26T13:43:46;16.23;;;10.65;;
61785;SDS011;47692;53.714;11.372;2024-02-26T13:46:12;19.20;;;10.82;;
61785;SDS011;47692;53.714;11.372;2024-02-26T13:48:39;17.15;;;10.25;;
61785;SDS011;47692;53.714;11.372;2024-02-26T13:51:04;17.10;;;10.68;;
61785;SDS011;47692;53.714;11.372;2024-02-26T13:53:30;15.43;;;9.90;;
61785;SDS011;47692;53.714;11.372;2024-02-26T13:55:55;17.02;;;10.35;;
61785;SDS011;47692;53.714;11.372;2024-02-26T13:58:23;16.98;;;10.38;;
61785;SDS011;47692;53.714;11.372;2024-02-26T14:00:49;16.42;;;10.00;;
61785;SDS011;47692;53.714;11.372;2024-02-26T14:03:15;16.85;;;10.55;;
61785;SDS011;47692;53.714;11.372;2024-02-26T14:05:41;17.17;;;10.65;;
61785;SDS011;47692;53.714;11.372;2024-02-26T14:08:06;16.25;;;10.23;;
61785;SDS011;47692;53.714;11.372;2024-02-26T14:10:32;16.38;;;9.55;;
61785;SDS011;47692;53.714;11.372;2024-02-26T14:12:58;18.42;;;11.18;;
61785;SDS011;47692;53.714;11.372;2024-02-26T14:15:24;19.27;;;10.93;;
61785;SDS011;47692;53.714;11.372;2024-02-26T14:17:50;20.48;;;10.48;;
61785;SDS011;47692;53.714;11.372;2024-02-26T14:20:20;21.55;;;10.57;;
61785;SDS011;47692;53.714;11.372;2024-02-26T14:22:46;19.55;;;9.35;;
61785;SDS011;47692;53.714;11.372;2024-02-26T14:25:11;20.05;;;9.68;;
61785;SDS011;47692;53.714;11.372;2024-02-26T14:27:36;23.90;;;10.65;;
61785;SDS011;47692;53.714;11.372;2024-02-26T14:30:02;21.95;;;10.13;;
61785;SDS011;47692;53.714;11.372;2024-02-26T14:32:27;21.38;;;9.93;;
61785;SDS011;47692;53.714;11.372;2024-02-26T14:34:53;22.35;;;10.13;;
61785;SDS011;47692;53.714;11.372;2024-02-26T14:37:18;18.50;;;8.82;;
61785;SDS011;47692;53.714;11.372;2024-02-26T14:39:43;19.63;;;9.93;;
61785;SDS011;47692;53.714;11.372;2024-02-26T14:42:09;17.65;;;8.77;;